sensor_id;sensor_type;location;lat;lon;timestamp;pressure;altitude;pressure_sealevel;temperature;humidity
9784;BME280;4931;44.874;-1.092;2023-11-19T00:02:20;102091.03;;;10.49;100.00
9784;BME280;4931;44.874;-1.092;2023-11-19T00:04:45;102098.19;;;10.50;100.00
9784;BME280;4931;44.874;-1.092;2023-11-19T00:07:11;102096.25;;;10.50;100.00
9784;BME280;4931;44.874;-1.092;2023-11-19T00:09:39;102079.03;;;10.38;100.00
9784;BME280;4931;44.874;-1.092;2023-11-19T00:12:05;102093.75;;;10.49;100.00
9784;BME280;4931;44.874;-1.092;2023-11-19T00:14:31;102072.34;;;10.34;100.00
9784;BME280;4931;44.874;-1.092;2023-11-19T00:16:56;102073.69;;;10.31;100.00
9784;BME280;4931;44.874;-1.092;2023-11-19T00:19:22;102080.72;;;10.39;100.00
9784;BME280;4931;44.874;-1.092;2023-11-19T00:21:47;102068.66;;;10.28;100.00
9784;BME280;4931;44.874;-1.092;2023-11-19T00:24:13;102076.53;;;10.36;100.00
9784;BME280;4931;44.874;-1.092;2023-11-19T00:26:41;102082.13;;;10.41;100.00
9784;BME280;4931;44.874;-1.092;2023-11-19T00:29:07;102082.69;;;10.43;100.00
9784;BME280;4931;44.874;-1.092;2023-11-19T00:31:33;102075.22;;;10.39;100.00
9784;BME280;4931;44.874;-1.092;2023-11-19T00:34:01;102081.53;;;10.39;100.00
9784;BME280;4931;44.874;-1.092;2023-11-19T00:36:28;102067.03;;;10.27;100.00
9784;BME280;4931;44.874;-1.092;2023-11-19T00:38:53;102075.31;;;10.32;100.00
9784;BME280;4931;44.874;-1.092;2023-11-19T00:41:19;102082.03;;;10.36;100.00
9784;BME280;4931;44.874;-1.092;2023-11-19T00:43:45;102068.75;;;10.33;100.00
9784;BME280;4931;44.874;-1.092;2023-11-19T00:46:10;102057.59;;;10.23;100.00
9784;BME280;4931;44.874;-1.092;2023-11-19T00:48:36;102072.00;;;10.30;100.00
9784;BME280;4931;44.874;-1.092;2023-11-19T00:51:02;102068.66;;;10.28;100.00
9784;BME280;4931;44.874;-1.092;2023-11-19T00:53:29;102074.75;;;10.30;100.00
9784;BME280;4931;44.874;-1.092;2023-11-19T00:55:55;102049.06;;;10.19;100.00
9784;BME280;4931;44.874;-1.092;2023-11-19T00:58:20;102068.66;;;10.28;100.00
9784;BME280;4931;44.874;-1.092;2023-11-19T01:00:46;102057.03;;;10.21;100.00
9784;BME280;4931;44.874;-1.092;2023-11-19T01:03:12;102067.34;;;10.30;100.00
9784;BME280;4931;44.874;-1.092;2023-11-19T01:05:37;102068.66;;;10.28;100.00
9784;BME280;4931;44.874;-1.092;2023-11-19T01:08:02;102055.34;;;10.20;100.00
9784;BME280;4931;44.874;-1.092;2023-11-19T01:10:30;102053.34;;;10.15;100.00
9784;BME280;4931;44.874;-1.092;2023-11-19T01:12:55;102068.25;;;10.19;100.00
9784;BME280;4931;44.874;-1.092;2023-11-19T01:15:21;102051.44;;;10.16;100.00
9784;BME280;4931;44.874;-1.092;2023-11-19T01:17:48;102053.78;;;10.24;100.00
9784;BME280;4931;44.874;-1.092;2023-11-19T01:20:13;102049.63;;;10.21;100.00
9784;BME280;4931;44.874;-1.092;2023-11-19T01:22:39;102052.47;;;10.26;100.00
9784;BME280;4931;44.874;-1.092;2023-11-19T01:25:06;102060.19;;;10.29;100.00
9784;BME280;4931;44.874;-1.092;2023-11-19T01:27:31;102059.97;;;10.31;100.00
9784;BME280;4931;44.874;-1.092;2023-11-19T01:29:59;102063.53;;;10.32;100.00
9784;BME280;4931;44.874;-1.092;2023-11-19T01:32:25;102056.72;;;10.34;100.00
9784;BME280;4931;44.874;-1.092;2023-11-19T01:34:51;102055.16;;;10.38;100.00
9784;BME280;4931;44.874;-1.092;2023-11-19T01:37:16;102050.75;;;10.37;100.00
9784;BME280;4931;44.874;-1.092;2023-11-19T01:39:45;102050.28;;;10.40;100.00
9784;BME280;4931;44.874;-1.092;2023-11-19T01:42:10;102058.59;;;10.45;100.00
9784;BME280;4931;44.874;-1.092;2023-11-19T01:44:37;102059.69;;;10.44;100.00
9784;BME280;4931;44.874;-1.092;2023-11-19T01:47:03;102044.78;;;10.40;100.00
9784;BME280;4931;44.874;-1.092;2023-11-19T01:49:30;102052.00;;;10.46;100.00
9784;BME280;4931;44.874;-1.092;2023-11-19T01:51:57;102052.00;;;10.46;100.00
9784;BME280;4931;44.874;-1.092;2023-11-19T01:54:24;102052.63;;;10.49;100.00
9784;BME280;4931;44.874;-1.092;2023-11-19T01:56:50;102043.13;;;10.39;100.00
9784;BME280;4931;44.874;-1.092;2023-11-19T01:59:18;102044.97;;;10.51;100.00
9784;BME280;4931;44.874;-1.092;2023-11-19T02:01:44;102038.81;;;10.60;100.00
9784;BME280;4931;44.874;-1.092;2023-11-19T02:04:09;102022.34;;;10.43;100.00
9784;BME280;4931;44.874;-1.092;2023-11-19T02:06:40;102036.66;;;10.45;100.00
9784;BME280;4931;44.874;-1.092;2023-11-19T02:09:08;102042.25;;;10.51;100.00
9784;BME280;4931;44.874;-1.092;2023-11-19T02:11:34;102049.13;;;10.53;100.00
9784;BME280;4931;44.874;-1.092;2023-11-19T02:14:00;102041.31;;;10.62;100.00
9784;BME280;4931;44.874;-1.092;2023-11-19T02:16:26;102043.81;;;10.63;100.00
9784;BME280;4931;44.874;-1.092;2023-11-19T02:18:51;102037.66;;;10.56;100.00
9784;BME280;4931;44.874;-1.092;2023-11-19T02:21:17;102043.41;;;10.72;100.00
9784;BME280;4931;44.874;-1.092;2023-11-19T02:23:43;102039.81;;;10.88;100.00
9784;BME280;4931;44.874;-1.092;2023-11-19T02:26:21;102047.31;;;10.93;100.00
9784;BME280;4931;44.874;-1.092;2023-11-19T02:28:51;102042.38;;;10.95;100.00
9784;BME280;4931;44.874;-1.092;2023-11-19T02:31:17;102035.16;;;10.89;100.00
9784;BME280;4931;44.874;-1.092;2023-11-19T02:33:44;102040.78;;;10.99;100.00
9784;BME280;4931;44.874;-1.092;2023-11-19T02:36:09;102045.78;;;11.02;100.00
9784;BME280;4931;44.874;-1.092;2023-11-19T02:38:35;102039.22;;;11.03;100.00
9784;BME280;4931;44.874;-1.092;2023-11-19T02:41:04;102040.94;;;11.09;100.00
9784;BME280;4931;44.874;-1.092;2023-11-19T02:43:33;102045.09;;;11.12;100.00
9784;BME280;4931;44.874;-1.092;2023-11-19T02:46:03;102039.94;;;11.55;100.00
9784;BME280;4931;44.874;-1.092;2023-11-19T02:48:32;102035.78;;;11.74;100.00
9784;BME280;4931;44.874;-1.092;2023-11-19T02:50:57;102028.72;;;11.84;100.00
9784;BME280;4931;44.874;-1.092;2023-11-19T02:53:23;102033.59;;;11.76;100.00
9784;BME280;4931;44.874;-1.092;2023-11-19T02:55:50;102029.34;;;11.63;100.00
9784;BME280;4931;44.874;-1.092;2023-11-19T02:58:16;102025.78;;;11.68;100.00
9784;BME280;4931;44.874;-1.092;2023-11-19T03:00:50;102034.69;;;11.75;100.00
9784;BME280;4931;44.874;-1.092;2023-11-19T03:03:28;102025.88;;;11.73;100.00
9784;BME280;4931;44.874;-1.092;2023-11-19T03:05:57;102018.25;;;11.81;100.00
9784;BME280;4931;44.874;-1.092;2023-11-19T03:08:23;102013.38;;;11.88;100.00
9784;BME280;4931;44.874;-1.092;2023-11-19T03:10:48;102024.09;;;12.39;100.00
9784;BME280;4931;44.874;-1.092;2023-11-19T03:13:14;102015.53;;;12.35;100.00
9784;BME280;4931;44.874;-1.092;2023-11-19T03:15:40;102019.50;;;12.50;100.00
9784;BME280;4931;44.874;-1.092;2023-11-19T03:18:07;102017.19;;;12.36;100.00
9784;BME280;4931;44.874;-1.092;2023-11-19T03:20:32;102010.56;;;12.32;100.00
9784;BME280;4931;44.874;-1.092;2023-11-19T03:22:58;102018.22;;;12.30;100.00
9784;BME280;4931;44.874;-1.092;2023-11-19T03:25:26;102032.78;;;12.25;100.00
9784;BME280;4931;44.874;-1.092;2023-11-19T03:28:03;102026.84;;;12.39;100.00
9784;BME280;4931;44.874;-1.092;2023-11-19T03:30:29;102023.34;;;12.49;100.00
9784;BME280;4931;44.874;-1.092;2023-11-19T03:32:56;102018.97;;;12.53;100.00
9784;BME280;4931;44.874;-1.092;2023-11-19T03:35:22;102016.09;;;12.37;100.00
9784;BME280;4931;44.874;-1.092;2023-11-19T03:37:48;102020.63;;;12.54;100.00
9784;BME280;4931;44.874;-1.092;2023-11-19T03:40:13;102015.31;;;12.74;100.00
9784;BME280;4931;44.874;-1.092;2023-11-19T03:42:40;102000.25;;;12.50;100.00
9784;BME280;4931;44.874;-1.092;2023-11-19T03:45:09;102015.13;;;12.54;100.00
9784;BME280;4931;44.874;-1.092;2023-11-19T03:47:35;102027.22;;;12.53;100.00
9784;BME280;4931;44.874;-1.092;2023-11-19T03:50:01;102025.81;;;12.45;100.00
9784;BME280;4931;44.874;-1.092;2023-11-19T03:52:26;102008.44;;;12.44;100.00
9784;BME280;4931;44.874;-1.092;2023-11-19T03:54:52;102013.56;;;12.63;100.00
9784;BME280;4931;44.874;-1.092;2023-11-19T03:57:18;102025.19;;;12.70;100.00
9784;BME280;4931;44.874;-1.092;2023-11-19T03:59:44;102017.75;;;12.71;100.00
9784;BME280;4931;44.874;-1.092;2023-11-19T04:02:09;102011.69;;;12.69;100.00
9784;BME280;4931;44.874;-1.092;2023-11-19T04:04:35;102030.25;;;12.84;100.00
9784;BME280;4931;44.874;-1.092;2023-11-19T04:07:01;102017.19;;;12.69;100.00
9784;BME280;4931;44.874;-1.092;2023-11-19T04:09:28;102025.50;;;12.74;100.00
9784;BME280;4931;44.874;-1.092;2023-11-19T04:11:54;102011.47;;;12.75;100.00
9784;BME280;4931;44.874;-1.092;2023-11-19T04:14:20;102029.41;;;12.83;100.00
9784;BME280;4931;44.874;-1.092;2023-11-19T04:16:45;102017.28;;;12.84;100.00
9784;BME280;4931;44.874;-1.092;2023-11-19T04:19:11;102025.53;;;13.22;100.00
9784;BME280;4931;44.874;-1.092;2023-11-19T04:21:39;102025.97;;;13.03;100.00
9784;BME280;4931;44.874;-1.092;2023-11-19T04:24:05;102017.72;;;13.03;100.00
9784;BME280;4931;44.874;-1.092;2023-11-19T04:26:30;102023.75;;;13.00;100.00
9784;BME280;4931;44.874;-1.092;2023-11-19T04:28:56;102017.84;;;13.24;100.00
9784;BME280;4931;44.874;-1.092;2023-11-19T04:31:21;102011.78;;;13.27;100.00
9784;BME280;4931;44.874;-1.092;2023-11-19T04:33:47;102009.06;;;13.32;100.00
9784;BME280;4931;44.874;-1.092;2023-11-19T04:36:12;102005.44;;;13.26;100.00
9784;BME280;4931;44.874;-1.092;2023-11-19T04:38:39;102019.09;;;13.59;100.00
9784;BME280;4931;44.874;-1.092;2023-11-19T04:41:05;102015.44;;;13.38;100.00
9784;BME280;4931;44.874;-1.092;2023-11-19T04:43:34;102020.13;;;13.37;100.00
9784;BME280;4931;44.874;-1.092;2023-11-19T04:45:59;102006.81;;;13.24;100.00
9784;BME280;4931;44.874;-1.092;2023-11-19T04:48:24;102020.56;;;13.19;100.00
9784;BME280;4931;44.874;-1.092;2023-11-19T04:50:50;102021.72;;;13.28;100.00
9784;BME280;4931;44.874;-1.092;2023-11-19T04:53:19;102022.81;;;13.27;100.00
9784;BME280;4931;44.874;-1.092;2023-11-19T04:55:45;102019.44;;;13.15;100.00
9784;BME280;4931;44.874;-1.092;2023-11-19T04:58:10;102031.03;;;13.22;100.00
9784;BME280;4931;44.874;-1.092;2023-11-19T05:00:36;102021.03;;;13.05;100.00
9784;BME280;4931;44.874;-1.092;2023-11-19T05:03:01;102024.47;;;13.28;100.00
9784;BME280;4931;44.874;-1.092;2023-11-19T05:05:27;102014.44;;;13.11;100.00
9784;BME280;4931;44.874;-1.092;2023-11-19T05:07:53;102024.72;;;13.21;100.00
9784;BME280;4931;44.874;-1.092;2023-11-19T05:10:18;102030.06;;;13.38;100.00
9784;BME280;4931;44.874;-1.092;2023-11-19T05:12:44;102037.22;;;13.39;100.00
9784;BME280;4931;44.874;-1.092;2023-11-19T05:15:10;102032.31;;;13.47;100.00
9784;BME280;4931;44.874;-1.092;2023-11-19T05:17:37;102017.75;;;13.61;100.00
9784;BME280;4931;44.874;-1.092;2023-11-19T05:20:03;102031.19;;;13.42;100.00
9784;BME280;4931;44.874;-1.092;2023-11-19T05:22:28;102031.16;;;13.37;100.00
9784;BME280;4931;44.874;-1.092;2023-11-19T05:24:54;102021.22;;;13.36;100.00
9784;BME280;4931;44.874;-1.092;2023-11-19T05:27:21;102032.25;;;13.36;100.00
9784;BME280;4931;44.874;-1.092;2023-11-19T05:29:47;102024.56;;;13.49;100.00
9784;BME280;4931;44.874;-1.092;2023-11-19T05:32:12;102036.69;;;13.42;100.00
9784;BME280;4931;44.874;-1.092;2023-11-19T05:34:38;102030.00;;;13.33;100.00
9784;BME280;4931;44.874;-1.092;2023-11-19T05:37:03;102025.97;;;13.46;100.00
9784;BME280;4931;44.874;-1.092;2023-11-19T05:39:30;102022.06;;;13.42;100.00
9784;BME280;4931;44.874;-1.092;2023-11-19T05:41:56;102033.13;;;13.47;100.00
9784;BME280;4931;44.874;-1.092;2023-11-19T05:44:21;102024.56;;;13.38;100.00
9784;BME280;4931;44.874;-1.092;2023-11-19T05:46:47;102025.09;;;13.40;100.00
9784;BME280;4931;44.874;-1.092;2023-11-19T05:49:12;102024.56;;;13.49;100.00
9784;BME280;4931;44.874;-1.092;2023-11-19T05:51:39;102023.44;;;13.39;100.00
9784;BME280;4931;44.874;-1.092;2023-11-19T05:54:07;102026.22;;;13.44;100.00
9784;BME280;4931;44.874;-1.092;2023-11-19T05:56:33;102027.47;;;13.80;100.00
9784;BME280;4931;44.874;-1.092;2023-11-19T05:58:59;102026.34;;;13.75;100.00
9784;BME280;4931;44.874;-1.092;2023-11-19T06:01:32;102025.25;;;13.76;100.00
9784;BME280;4931;44.874;-1.092;2023-11-19T06:03:58;102024.09;;;13.62;100.00
9784;BME280;4931;44.874;-1.092;2023-11-19T06:06:23;102020.78;;;13.60;100.00
9784;BME280;4931;44.874;-1.092;2023-11-19T06:08:49;102025.28;;;13.82;100.00
9784;BME280;4931;44.874;-1.092;2023-11-19T06:11:15;102025.50;;;13.65;100.00
9784;BME280;4931;44.874;-1.092;2023-11-19T06:13:44;102034.59;;;13.65;100.00
9784;BME280;4931;44.874;-1.092;2023-11-19T06:16:10;102037.41;;;13.81;100.00
9784;BME280;4931;44.874;-1.092;2023-11-19T06:18:38;102048.41;;;13.70;100.00
9784;BME280;4931;44.874;-1.092;2023-11-19T06:21:04;102042.28;;;13.63;100.00
9784;BME280;4931;44.874;-1.092;2023-11-19T06:23:30;102035.69;;;13.69;100.00
9784;BME280;4931;44.874;-1.092;2023-11-19T06:25:55;102036.28;;;13.76;100.00
9784;BME280;4931;44.874;-1.092;2023-11-19T06:28:20;102022.97;;;13.63;100.00
9784;BME280;4931;44.874;-1.092;2023-11-19T06:30:46;102045.09;;;13.78;100.00
9784;BME280;4931;44.874;-1.092;2023-11-19T06:33:14;102037.94;;;13.72;100.00
9784;BME280;4931;44.874;-1.092;2023-11-19T06:35:40;102044.06;;;13.95;100.00
9784;BME280;4931;44.874;-1.092;2023-11-19T06:38:06;102036.84;;;13.78;100.00
9784;BME280;4931;44.874;-1.092;2023-11-19T06:40:32;102017.00;;;13.82;100.00
9784;BME280;4931;44.874;-1.092;2023-11-19T06:42:57;102031.88;;;13.81;100.00
9784;BME280;4931;44.874;-1.092;2023-11-19T06:45:23;102032.16;;;13.79;100.00
9784;BME280;4931;44.874;-1.092;2023-11-19T06:47:48;102026.63;;;13.74;100.00
9784;BME280;4931;44.874;-1.092;2023-11-19T06:50:14;102041.03;;;13.97;100.00
9784;BME280;4931;44.874;-1.092;2023-11-19T06:52:40;102030.78;;;13.76;100.00
9784;BME280;4931;44.874;-1.092;2023-11-19T06:55:06;102033.56;;;13.82;100.00
9784;BME280;4931;44.874;-1.092;2023-11-19T06:57:32;102047.97;;;14.09;100.00
9784;BME280;4931;44.874;-1.092;2023-11-19T06:59:58;102048.50;;;14.01;100.00
9784;BME280;4931;44.874;-1.092;2023-11-19T07:02:24;102041.84;;;13.87;100.00
9784;BME280;4931;44.874;-1.092;2023-11-19T07:04:50;102056.78;;;13.96;100.00
9784;BME280;4931;44.874;-1.092;2023-11-19T07:07:15;102052.88;;;13.87;100.00
9784;BME280;4931;44.874;-1.092;2023-11-19T07:09:41;102059.25;;;13.98;100.00
9784;BME280;4931;44.874;-1.092;2023-11-19T07:12:07;102063.44;;;14.10;100.00
9784;BME280;4931;44.874;-1.092;2023-11-19T07:14:32;102059.00;;;14.04;100.00
9784;BME280;4931;44.874;-1.092;2023-11-19T07:16:57;102057.81;;;13.80;100.00
9784;BME280;4931;44.874;-1.092;2023-11-19T07:19:23;102058.88;;;13.73;100.00
9784;BME280;4931;44.874;-1.092;2023-11-19T07:21:48;102061.09;;;13.71;100.00
9784;BME280;4931;44.874;-1.092;2023-11-19T07:24:14;102064.38;;;13.73;100.00
9784;BME280;4931;44.874;-1.092;2023-11-19T07:26:43;102063.81;;;13.66;100.00
9784;BME280;4931;44.874;-1.092;2023-11-19T07:29:09;102051.19;;;13.81;100.00
9784;BME280;4931;44.874;-1.092;2023-11-19T07:31:35;102067.69;;;13.70;100.00
9784;BME280;4931;44.874;-1.092;2023-11-19T07:34:01;102071.81;;;13.68;100.00
9784;BME280;4931;44.874;-1.092;2023-11-19T07:36:26;102067.72;;;13.75;100.00
9784;BME280;4931;44.874;-1.092;2023-11-19T07:38:52;102070.53;;;13.91;100.00
9784;BME280;4931;44.874;-1.092;2023-11-19T07:41:18;102068.84;;;13.80;100.00
9784;BME280;4931;44.874;-1.092;2023-11-19T07:43:45;102062.75;;;13.83;100.00
9784;BME280;4931;44.874;-1.092;2023-11-19T07:46:12;102064.47;;;13.94;100.00
9784;BME280;4931;44.874;-1.092;2023-11-19T07:48:41;102062.28;;;14.06;100.00
9784;BME280;4931;44.874;-1.092;2023-11-19T07:51:08;102067.00;;;14.06;100.00
9784;BME280;4931;44.874;-1.092;2023-11-19T07:53:33;102073.31;;;14.06;100.00
9784;BME280;4931;44.874;-1.092;2023-11-19T07:56:00;102066.13;;;13.95;100.00
9784;BME280;4931;44.874;-1.092;2023-11-19T07:58:25;102068.38;;;14.14;100.00
9784;BME280;4931;44.874;-1.092;2023-11-19T08:00:51;102078.03;;;14.06;100.00
9784;BME280;4931;44.874;-1.092;2023-11-19T08:03:17;102079.47;;;14.29;100.00
9784;BME280;4931;44.874;-1.092;2023-11-19T08:05:47;102076.38;;;14.10;100.00
9784;BME280;4931;44.874;-1.092;2023-11-19T08:08:12;102088.53;;;14.14;100.00
9784;BME280;4931;44.874;-1.092;2023-11-19T08:10:38;102086.03;;;14.13;100.00
9784;BME280;4931;44.874;-1.092;2023-11-19T08:13:05;102085.50;;;14.10;100.00
9784;BME280;4931;44.874;-1.092;2023-11-19T08:15:31;102089.34;;;14.09;100.00
9784;BME280;4931;44.874;-1.092;2023-11-19T08:17:56;102083.28;;;14.13;100.00
9784;BME280;4931;44.874;-1.092;2023-11-19T08:20:22;102089.09;;;14.11;100.00
9784;BME280;4931;44.874;-1.092;2023-11-19T08:22:48;102097.34;;;14.11;100.00
9784;BME280;4931;44.874;-1.092;2023-11-19T08:25:14;102087.72;;;14.19;100.00
9784;BME280;4931;44.874;-1.092;2023-11-19T08:27:39;102097.66;;;14.15;100.00
9784;BME280;4931;44.874;-1.092;2023-11-19T08:30:05;102107.06;;;14.24;100.00
9784;BME280;4931;44.874;-1.092;2023-11-19T08:32:31;102104.59;;;14.27;100.00
9784;BME280;4931;44.874;-1.092;2023-11-19T08:34:57;102107.63;;;14.41;100.00
9784;BME280;4931;44.874;-1.092;2023-11-19T08:37:22;102104.59;;;14.43;100.00
9784;BME280;4931;44.874;-1.092;2023-11-19T08:39:48;102119.78;;;14.40;100.00
9784;BME280;4931;44.874;-1.092;2023-11-19T08:42:14;102096.88;;;14.40;100.00
9784;BME280;4931;44.874;-1.092;2023-11-19T08:44:40;102113.13;;;14.26;100.00
9784;BME280;4931;44.874;-1.092;2023-11-19T08:47:12;102117.59;;;14.42;100.00
9784;BME280;4931;44.874;-1.092;2023-11-19T08:49:39;102113.75;;;14.54;100.00
9784;BME280;4931;44.874;-1.092;2023-11-19T08:52:05;102113.75;;;14.54;100.00
9784;BME280;4931;44.874;-1.092;2023-11-19T08:54:32;102114.03;;;14.63;100.00
9784;BME280;4931;44.874;-1.092;2023-11-19T08:56:58;102118.69;;;14.52;100.00
9784;BME280;4931;44.874;-1.092;2023-11-19T08:59:24;102105.44;;;14.43;100.00
9784;BME280;4931;44.874;-1.092;2023-11-19T09:01:51;102112.09;;;14.63;100.00
9784;BME280;4931;44.874;-1.092;2023-11-19T09:04:16;102110.72;;;14.55;100.00
9784;BME280;4931;44.874;-1.092;2023-11-19T09:06:42;102112.41;;;14.72;100.00
9784;BME280;4931;44.874;-1.092;2023-11-19T09:09:08;102106.63;;;14.68;100.00
9784;BME280;4931;44.874;-1.092;2023-11-19T09:11:34;102110.13;;;14.53;100.00
9784;BME280;4931;44.874;-1.092;2023-11-19T09:14:00;102120.97;;;14.81;100.00
9784;BME280;4931;44.874;-1.092;2023-11-19T09:16:25;102125.41;;;14.87;100.00
9784;BME280;4931;44.874;-1.092;2023-11-19T09:18:51;102117.41;;;14.85;100.00
9784;BME280;4931;44.874;-1.092;2023-11-19T09:21:16;102119.31;;;14.85;100.00
9784;BME280;4931;44.874;-1.092;2023-11-19T09:23:42;102118.75;;;14.93;100.00
9784;BME280;4931;44.874;-1.092;2023-11-19T09:26:10;102105.22;;;14.91;100.00
9784;BME280;4931;44.874;-1.092;2023-11-19T09:28:36;102109.66;;;14.98;100.00
9784;BME280;4931;44.874;-1.092;2023-11-19T09:31:01;102118.22;;;15.12;100.00
9784;BME280;4931;44.874;-1.092;2023-11-19T09:33:30;102123.19;;;15.15;100.00
9784;BME280;4931;44.874;-1.092;2023-11-19T09:35:56;102121.53;;;15.19;100.00
9784;BME280;4931;44.874;-1.092;2023-11-19T09:38:21;102120.13;;;15.32;100.00
9784;BME280;4931;44.874;-1.092;2023-11-19T09:40:46;102106.56;;;15.40;100.00
9784;BME280;4931;44.874;-1.092;2023-11-19T09:43:14;102096.03;;;15.42;100.00
9784;BME280;4931;44.874;-1.092;2023-11-19T09:45:48;102110.97;;;15.36;100.00
9784;BME280;4931;44.874;-1.092;2023-11-19T09:48:18;102101.53;;;15.58;100.00
9784;BME280;4931;44.874;-1.092;2023-11-19T09:50:47;102110.34;;;15.70;100.00
9784;BME280;4931;44.874;-1.092;2023-11-19T09:53:14;102107.88;;;15.58;100.00
9784;BME280;4931;44.874;-1.092;2023-11-19T09:55:40;102110.34;;;15.70;100.00
9784;BME280;4931;44.874;-1.092;2023-11-19T09:58:06;102113.69;;;15.62;100.00
9784;BME280;4931;44.874;-1.092;2023-11-19T10:00:32;102108.13;;;15.77;100.00
9784;BME280;4931;44.874;-1.092;2023-11-19T10:02:59;102116.13;;;15.84;100.00
9784;BME280;4931;44.874;-1.092;2023-11-19T10:05:25;102123.66;;;15.63;100.00
9784;BME280;4931;44.874;-1.092;2023-11-19T10:07:52;102118.13;;;15.58;100.00
9784;BME280;4931;44.874;-1.092;2023-11-19T10:10:17;102122.00;;;15.57;100.00
9784;BME280;4931;44.874;-1.092;2023-11-19T10:12:47;102138.06;;;15.55;100.00
9784;BME280;4931;44.874;-1.092;2023-11-19T10:15:23;102140.00;;;15.44;100.00
9784;BME280;4931;44.874;-1.092;2023-11-19T10:17:55;102144.72;;;15.33;100.00
9784;BME280;4931;44.874;-1.092;2023-11-19T10:20:21;102154.69;;;15.29;100.00
9784;BME280;4931;44.874;-1.092;2023-11-19T10:22:47;102156.34;;;15.25;100.00
9784;BME280;4931;44.874;-1.092;2023-11-19T10:25:39;102166.84;;;15.33;100.00
9784;BME280;4931;44.874;-1.092;2023-11-19T10:28:04;102162.69;;;15.31;100.00
9784;BME280;4931;44.874;-1.092;2023-11-19T10:30:30;102157.44;;;15.24;100.00
9784;BME280;4931;44.874;-1.092;2023-11-19T10:33:08;102162.41;;;15.32;100.00
9784;BME280;4931;44.874;-1.092;2023-11-19T10:35:36;102155.25;;;15.26;100.00
9784;BME280;4931;44.874;-1.092;2023-11-19T10:38:13;102145.81;;;15.37;100.00
9784;BME280;4931;44.874;-1.092;2023-11-19T10:40:40;102149.69;;;15.36;100.00
9784;BME280;4931;44.874;-1.092;2023-11-19T10:43:06;102146.38;;;15.44;100.00
9784;BME280;4931;44.874;-1.092;2023-11-19T10:45:33;102155.34;;;16.57;100.00
9784;BME280;4931;44.874;-1.092;2023-11-19T10:47:59;102137.91;;;16.96;100.00
9784;BME280;4931;44.874;-1.092;2023-11-19T10:50:26;102136.00;;;16.52;100.00
9784;BME280;4931;44.874;-1.092;2023-11-19T10:52:56;102144.44;;;16.31;100.00
9784;BME280;4931;44.874;-1.092;2023-11-19T10:55:29;102138.28;;;16.39;100.00
9784;BME280;4931;44.874;-1.092;2023-11-19T10:58:09;102126.88;;;16.46;100.00
9784;BME280;4931;44.874;-1.092;2023-11-19T11:00:56;102129.31;;;16.58;100.00
9784;BME280;4931;44.874;-1.092;2023-11-19T11:03:24;102128.38;;;16.68;100.00
9784;BME280;4931;44.874;-1.092;2023-11-19T11:05:52;102129.81;;;16.65;100.00
9784;BME280;4931;44.874;-1.092;2023-11-19T11:08:19;102131.47;;;16.66;100.00
9784;BME280;4931;44.874;-1.092;2023-11-19T11:10:46;102135.38;;;16.65;100.00
9784;BME280;4931;44.874;-1.092;2023-11-19T11:13:13;102128.13;;;16.69;100.00
9784;BME280;4931;44.874;-1.092;2023-11-19T11:15:39;102124.81;;;16.67;100.00
9784;BME280;4931;44.874;-1.092;2023-11-19T11:18:08;102136.16;;;16.71;100.00
9784;BME280;4931;44.874;-1.092;2023-11-19T11:20:34;102129.81;;;16.65;100.00
9784;BME280;4931;44.874;-1.092;2023-11-19T11:28:33;102124.38;;;16.89;100.00
9784;BME280;4931;44.874;-1.092;2023-11-19T11:34:09;102121.75;;;17.08;100.00
9784;BME280;4931;44.874;-1.092;2023-11-19T11:37:10;102106.06;;;17.23;100.00
9784;BME280;4931;44.874;-1.092;2023-11-19T11:39:36;102101.66;;;17.22;100.00
9784;BME280;4931;44.874;-1.092;2023-11-19T11:45:09;102100.31;;;17.68;100.00
9784;BME280;4931;44.874;-1.092;2023-11-19T11:50:20;102095.72;;;17.58;100.00
9784;BME280;4931;44.874;-1.092;2023-11-19T11:55:27;102107.28;;;17.65;100.00
9784;BME280;4931;44.874;-1.092;2023-11-19T11:57:53;102105.56;;;17.69;100.00
9784;BME280;4931;44.874;-1.092;2023-11-19T12:00:41;102096.06;;;17.75;100.00
9784;BME280;4931;44.874;-1.092;2023-11-19T12:03:08;102085.09;;;17.65;100.00
9784;BME280;4931;44.874;-1.092;2023-11-19T12:05:44;102091.47;;;17.66;100.00
9784;BME280;4931;44.874;-1.092;2023-11-19T12:08:12;102092.41;;;17.56;100.00
9784;BME280;4931;44.874;-1.092;2023-11-19T12:10:45;102093.25;;;17.56;100.00
9784;BME280;4931;44.874;-1.092;2023-11-19T12:13:13;102086.03;;;17.55;100.00
9784;BME280;4931;44.874;-1.092;2023-11-19T12:18:30;102083.44;;;17.64;100.00
9784;BME280;4931;44.874;-1.092;2023-11-19T12:20:59;102081.78;;;17.63;100.00
9784;BME280;4931;44.874;-1.092;2023-11-19T12:23:27;102073.09;;;17.70;100.00
9784;BME280;4931;44.874;-1.092;2023-11-19T12:25:54;102065.97;;;17.64;100.00
9784;BME280;4931;44.874;-1.092;2023-11-19T12:28:20;102082.84;;;17.67;100.00
9784;BME280;4931;44.874;-1.092;2023-11-19T12:30:45;102069.50;;;17.69;100.00
9784;BME280;4931;44.874;-1.092;2023-11-19T12:33:13;102060.75;;;17.57;100.00
9784;BME280;4931;44.874;-1.092;2023-11-19T12:35:43;102067.84;;;17.68;100.00
9784;BME280;4931;44.874;-1.092;2023-11-19T12:38:19;102063.91;;;17.74;100.00
9784;BME280;4931;44.874;-1.092;2023-11-19T12:40:46;102050.59;;;17.71;100.00
9784;BME280;4931;44.874;-1.092;2023-11-19T12:43:21;102072.03;;;17.90;100.00
9784;BME280;4931;44.874;-1.092;2023-11-19T12:45:46;102062.03;;;17.89;100.00
9784;BME280;4931;44.874;-1.092;2023-11-19T12:48:12;102065.91;;;17.93;100.00
9784;BME280;4931;44.874;-1.092;2023-11-19T12:50:54;102065.94;;;17.88;100.00
9784;BME280;4931;44.874;-1.092;2023-11-19T12:53:25;102056.25;;;17.85;100.00
9784;BME280;4931;44.874;-1.092;2023-11-19T12:55:51;102053.69;;;17.94;100.00
9784;BME280;4931;44.874;-1.092;2023-11-19T12:58:34;102053.69;;;17.94;100.00
9784;BME280;4931;44.874;-1.092;2023-11-19T13:01:05;102055.38;;;17.90;100.00
9784;BME280;4931;44.874;-1.092;2023-11-19T13:03:33;102057.06;;;17.86;100.00
9784;BME280;4931;44.874;-1.092;2023-11-19T13:06:09;102053.25;;;17.82;100.00
9784;BME280;4931;44.874;-1.092;2023-11-19T13:08:43;102047.75;;;17.76;100.00
9784;BME280;4931;44.874;-1.092;2023-11-19T13:11:13;102043.25;;;17.81;100.00